createdAt,value
2019-06-15T00:01:58.712Z,26.01
2019-06-15T00:04:32.458Z,25.98
2019-06-15T00:07:07.353Z,25.94
2019-06-15T00:09:38.562Z,25.95
2019-06-15T00:12:11.533Z,25.90
2019-06-15T00:14:44.424Z,25.76
2019-06-15T00:17:20.159Z,25.62
2019-06-15T00:19:51.620Z,25.44
2019-06-15T00:22:25.275Z,25.36
2019-06-15T00:25:00.397Z,25.44
2019-06-15T00:27:36.157Z,25.59
2019-06-15T00:30:10.499Z,25.91
2019-06-15T00:32:56.403Z,25.09
2019-06-15T00:35:39.386Z,24.60
2019-06-15T00:38:10.775Z,24.34
2019-06-15T00:40:44.689Z,24.50
2019-06-15T00:43:18.614Z,24.59
2019-06-15T00:45:51.583Z,24.85
2019-06-15T00:48:34.876Z,25.00
2019-06-15T00:51:06.812Z,24.89
2019-06-15T00:53:38.888Z,24.67
2019-06-15T00:56:12.749Z,24.95
2019-06-15T00:58:58.702Z,25.24
2019-06-15T01:01:35.460Z,25.51
2019-06-15T01:04:08.672Z,25.90
2019-06-15T01:06:40.676Z,26.03
2019-06-15T01:09:13.770Z,25.90
2019-06-15T01:11:48.203Z,25.85
2019-06-15T01:14:23.709Z,25.49
2019-06-15T01:16:57.731Z,25.26
2019-06-15T01:19:29.924Z,25.33
2019-06-15T01:22:03.125Z,25.43
2019-06-15T01:24:35.120Z,25.37
2019-06-15T01:27:07.129Z,25.44
2019-06-15T01:29:40.953Z,25.27
2019-06-15T01:32:14.768Z,25.34
2019-06-15T01:34:49.244Z,25.10
2019-06-15T01:37:22.998Z,24.43
2019-06-15T01:39:55.048Z,24.17
2019-06-15T01:42:28.974Z,24.06
2019-06-15T01:45:02.878Z,24.46
2019-06-15T01:47:36.540Z,24.79
2019-06-15T01:50:10.394Z,25.01
2019-06-15T01:52:41.886Z,25.20
2019-06-15T01:55:28.479Z,25.39
2019-06-15T01:58:01.945Z,25.59
2019-06-15T02:00:36.499Z,25.22
2019-06-15T02:03:07.939Z,25.17
2019-06-15T02:05:41.210Z,25.28
2019-06-15T02:08:14.994Z,25.22
2019-06-15T02:10:47.205Z,25.03
2019-06-15T02:13:19.249Z,25.04
2019-06-15T02:15:52.242Z,25.02
2019-06-15T02:18:25.281Z,24.98
2019-06-15T02:20:58.100Z,24.79
2019-06-15T02:23:31.201Z,24.92
2019-06-15T02:26:03.319Z,24.81
2019-06-15T02:28:36.447Z,24.67
2019-06-15T02:31:10.175Z,24.68
2019-06-15T02:33:42.241Z,24.40
2019-06-15T02:36:14.422Z,24.37
2019-06-15T02:38:48.196Z,24.42
2019-06-15T02:41:23.984Z,24.43
2019-06-15T02:43:56.648Z,24.45
2019-06-15T02:46:28.406Z,24.83
2019-06-15T02:49:00.471Z,25.05
2019-06-15T02:51:33.780Z,25.07
2019-06-15T02:54:07.216Z,25.11
2019-06-15T02:56:40.402Z,25.09
2019-06-15T02:59:13.324Z,24.93
2019-06-15T03:01:46.299Z,24.69
2019-06-15T03:04:19.383Z,24.61
2019-06-15T03:06:53.583Z,24.76
2019-06-15T03:09:26.344Z,25.08
2019-06-15T03:12:01.043Z,25.65
2019-06-15T03:14:32.510Z,25.95
2019-06-15T03:17:04.550Z,26.00
2019-06-15T03:19:37.558Z,26.18
2019-06-15T03:22:09.628Z,26.29
2019-06-15T03:24:42.595Z,26.38
2019-06-15T03:27:15.258Z,26.43
2019-06-15T03:29:49.260Z,26.34
2019-06-15T03:32:23.549Z,26.53
2019-06-15T03:34:56.433Z,26.64
2019-06-15T03:37:29.664Z,26.54
2019-06-15T03:40:03.701Z,26.18
2019-06-15T03:42:37.542Z,25.99
2019-06-15T03:45:11.751Z,26.17
2019-06-15T03:47:52.861Z,26.48
2019-06-15T03:50:34.451Z,26.74
2019-06-15T03:53:08.582Z,26.43
2019-06-15T03:55:41.554Z,26.52
2019-06-15T03:58:14.782Z,26.52
2019-06-15T04:00:54.376Z,26.82
2019-06-15T04:03:28.607Z,26.86
2019-06-15T04:06:00.837Z,26.73
2019-06-15T04:08:33.830Z,26.87
2019-06-15T04:11:06.783Z,26.92
2019-06-15T04:13:38.608Z,26.18
2019-06-15T04:16:10.940Z,26.26
2019-06-15T04:18:44.993Z,26.12
2019-06-15T04:21:17.808Z,26.56
2019-06-15T04:23:50.796Z,26.36
2019-06-15T04:26:35.302Z,26.10
2019-06-15T04:28:57.996Z,26.46
2019-06-15T04:31:31.030Z,26.85
2019-06-15T04:34:03.893Z,27.03
2019-06-15T04:36:39.517Z,27.43
2019-06-15T04:39:13.053Z,27.59
2019-06-15T04:41:46.688Z,27.62
2019-06-15T04:44:17.902Z,27.54
2019-06-15T04:46:49.873Z,27.38
2019-06-15T04:49:25.561Z,26.73
2019-06-15T04:51:58.914Z,26.80
2019-06-15T04:54:30.970Z,26.73
2019-06-15T04:57:03.986Z,26.87
2019-06-15T04:59:36.032Z,27.16
2019-06-15T05:02:08.081Z,27.06
2019-06-15T05:04:41.099Z,27.17
2019-06-15T05:07:14.752Z,27.67
2019-06-15T05:09:46.158Z,27.79
2019-06-15T05:12:20.135Z,27.58
2019-06-15T05:14:52.104Z,27.71
2019-06-15T05:17:25.096Z,28.03
2019-06-15T05:19:57.164Z,27.30
2019-06-15T05:22:29.021Z,26.88
2019-06-15T05:25:05.262Z,26.62
2019-06-15T05:27:36.988Z,25.89
2019-06-15T05:30:49.888Z,25.94
2019-06-15T05:33:21.259Z,25.74
2019-06-15T05:35:55.965Z,25.77
2019-06-15T05:38:27.400Z,25.69
2019-06-15T05:41:19.579Z,25.86
2019-06-15T05:43:53.215Z,25.90
2019-06-15T05:46:25.369Z,26.14
2019-06-15T05:48:58.462Z,26.37
2019-06-15T05:51:31.222Z,26.60
2019-06-15T05:54:05.914Z,26.49
2019-06-15T05:56:37.340Z,26.83
2019-06-15T05:59:11.770Z,26.49
2019-06-15T06:01:45.464Z,26.97
2019-06-15T06:04:19.174Z,26.98
2019-06-15T06:06:52.412Z,26.91
2019-06-15T06:09:25.201Z,26.58
2019-06-15T06:11:57.400Z,26.84
2019-06-15T06:14:30.390Z,26.74
2019-06-15T06:17:03.406Z,26.59
2019-06-15T06:19:36.381Z,26.87
2019-06-15T06:22:09.365Z,26.80
2019-06-15T06:24:42.349Z,26.97
2019-06-15T06:27:14.418Z,26.89
2019-06-15T06:29:50.158Z,27.01
2019-06-15T06:32:22.371Z,27.24
2019-06-15T06:34:55.512Z,27.47
2019-06-15T06:37:29.551Z,27.62
2019-06-15T06:40:07.519Z,27.79
2019-06-15T06:42:39.468Z,27.55
2019-06-15T06:45:15.254Z,27.77
2019-06-15T06:48:03.171Z,27.70
2019-06-15T06:50:41.647Z,27.47
2019-06-15T06:53:12.887Z,27.91
2019-06-15T06:55:54.213Z,28.18
2019-06-15T06:58:25.617Z,28.36
2019-06-15T07:00:57.675Z,28.90
2019-06-15T07:03:30.651Z,29.03
2019-06-15T07:06:04.586Z,29.27
2019-06-15T07:08:37.583Z,29.09
2019-06-15T07:11:13.315Z,28.77
2019-06-15T07:13:47.642Z,29.06
2019-06-15T07:16:21.765Z,29.06
2019-06-15T07:18:54.739Z,29.23
2019-06-15T07:21:26.802Z,28.96
2019-06-15T07:23:59.791Z,28.54
2019-06-15T07:26:33.242Z,28.31
2019-06-15T07:29:05.133Z,28.56
2019-06-15T07:31:38.765Z,28.79
2019-06-15T07:34:11.790Z,27.67
2019-06-15T07:36:44.764Z,28.55
2019-06-15T07:39:17.998Z,28.70
2019-06-15T07:41:50.990Z,28.51
2019-06-15T07:44:23.961Z,29.25
2019-06-15T07:46:57.936Z,28.94
2019-06-15T07:49:29.948Z,29.12
2019-06-15T07:52:02.032Z,29.18
2019-06-15T07:54:36.240Z,29.27
2019-06-15T07:57:11.785Z,29.11
2019-06-15T07:59:46.968Z,29.52
2019-06-15T08:02:20.133Z,29.33
2019-06-15T08:04:53.147Z,29.73
2019-06-15T08:07:26.366Z,29.83
2019-06-15T08:09:58.170Z,29.62
2019-06-15T08:12:30.997Z,29.39
2019-06-15T08:15:05.703Z,29.41
2019-06-15T08:17:37.519Z,29.89
2019-06-15T08:20:10.104Z,30.03
2019-06-15T08:22:52.044Z,30.22
2019-06-15T08:25:34.779Z,30.09
2019-06-15T08:28:08.118Z,30.09
2019-06-15T08:30:42.515Z,30.22
2019-06-15T08:33:14.090Z,30.73
2019-06-15T08:35:46.277Z,30.61
2019-06-15T08:38:26.060Z,30.56
2019-06-15T08:41:05.971Z,30.69
2019-06-15T08:43:38.145Z,30.89
2019-06-15T08:46:11.376Z,31.05
2019-06-15T08:48:45.200Z,31.02
2019-06-15T08:51:17.302Z,31.07
2019-06-15T08:53:51.187Z,30.88
2019-06-15T08:56:26.915Z,31.20
2019-06-15T08:58:59.311Z,30.94
2019-06-15T09:01:33.239Z,31.10
2019-06-15T09:04:07.331Z,31.09
2019-06-15T09:06:41.091Z,31.22
2019-06-15T09:09:15.999Z,31.05
2019-06-15T09:11:48.271Z,30.64
2019-06-15T09:14:20.330Z,31.05
2019-06-15T09:16:54.475Z,31.17
2019-06-15T09:19:27.550Z,31.42
2019-06-15T09:22:03.190Z,31.51
2019-06-15T09:24:38.174Z,31.68
2019-06-15T09:27:11.287Z,31.46
2019-06-15T09:29:42.617Z,31.59
2019-06-15T09:32:15.524Z,31.38
2019-06-15T09:34:49.590Z,31.59
2019-06-15T09:37:25.236Z,31.49
2019-06-15T09:39:59.258Z,31.23
2019-06-15T09:42:31.652Z,31.87
2019-06-15T09:45:08.025Z,32.21
2019-06-15T09:47:40.473Z,32.29
2019-06-15T09:50:13.570Z,32.35
2019-06-15T09:53:01.128Z,32.87
2019-06-15T09:55:50.358Z,33.04
2019-06-15T09:58:24.531Z,32.48
2019-06-15T10:00:58.490Z,32.69
2019-06-15T10:03:31.009Z,33.15
2019-06-15T10:06:03.719Z,33.57
2019-06-15T10:08:37.721Z,33.34
2019-06-15T10:11:12.493Z,33.47
2019-06-15T10:13:44.790Z,32.76
2019-06-15T10:16:18.918Z,33.21
2019-06-15T10:18:51.782Z,32.59
2019-06-15T10:21:24.595Z,33.09
2019-06-15T10:23:58.016Z,32.95
2019-06-15T10:26:31.844Z,33.73
2019-06-15T10:29:05.193Z,34.03
2019-06-15T10:31:40.705Z,33.14
2019-06-15T10:34:14.032Z,33.07
2019-06-15T10:36:46.950Z,33.35
2019-06-15T10:39:19.547Z,33.80
2019-06-15T10:41:53.607Z,34.36
2019-06-15T10:44:27.457Z,34.67
2019-06-15T10:46:59.718Z,34.73
2019-06-15T10:49:32.920Z,35.20
2019-06-15T10:52:07.032Z,35.55
2019-06-15T10:54:42.824Z,35.41
2019-06-15T10:57:16.930Z,34.89
2019-06-15T10:59:57.492Z,35.05
2019-06-15T11:02:25.180Z,34.91
2019-06-15T11:04:57.970Z,34.90
2019-06-15T11:07:31.843Z,35.22
2019-06-15T11:10:08.625Z,34.89
2019-06-15T11:12:46.275Z,34.98
2019-06-15T11:15:28.922Z,34.32
2019-06-15T11:18:01.760Z,34.12
2019-06-15T11:20:48.819Z,33.89
2019-06-15T11:23:20.972Z,33.73
2019-06-15T11:25:53.095Z,33.97
2019-06-15T11:28:25.008Z,34.33
2019-06-15T11:30:58.717Z,34.03
2019-06-15T11:33:31.086Z,33.88
2019-06-15T11:36:05.426Z,33.73
2019-06-15T11:38:40.809Z,34.09
2019-06-15T11:41:15.388Z,33.83
2019-06-15T11:43:48.265Z,34.27
2019-06-15T11:46:22.133Z,34.34
2019-06-15T11:48:55.647Z,34.55
2019-06-15T11:51:29.127Z,34.92
2019-06-15T11:54:03.452Z,35.11
2019-06-15T11:56:36.197Z,35.10
2019-06-15T11:59:10.152Z,35.04
2019-06-15T12:01:45.068Z,34.96
2019-06-15T12:04:17.850Z,34.85
2019-06-15T12:06:51.050Z,34.78
2019-06-15T12:09:22.259Z,34.94
2019-06-15T12:11:56.042Z,34.91
2019-06-15T12:14:29.294Z,35.08
2019-06-15T12:17:02.290Z,35.13
2019-06-15T12:19:33.899Z,34.93
2019-06-15T12:22:06.450Z,35.20
2019-06-15T12:24:39.598Z,35.15
2019-06-15T12:27:12.241Z,35.27
2019-06-15T12:29:43.513Z,35.34
2019-06-15T12:32:17.493Z,35.28
2019-06-15T12:34:50.569Z,35.06
2019-06-15T12:37:21.966Z,34.72
2019-06-15T12:39:54.575Z,34.77
2019-06-15T12:42:25.836Z,34.91
2019-06-15T12:44:59.318Z,34.79
2019-06-15T12:47:32.672Z,34.83
2019-06-15T12:50:06.468Z,34.52
2019-06-15T12:52:39.340Z,34.36
2019-06-15T12:55:11.673Z,34.41
2019-06-15T12:57:44.612Z,34.31
2019-06-15T13:00:32.132Z,34.32
2019-06-15T13:03:06.204Z,34.53
2019-06-15T13:06:06.328Z,34.44
2019-06-15T13:08:38.632Z,33.96
2019-06-15T13:11:10.677Z,34.17
2019-06-15T13:13:42.743Z,34.77
2019-06-15T13:16:15.893Z,34.93
2019-06-15T13:18:53.879Z,34.55
2019-06-15T13:21:28.496Z,33.97
2019-06-15T13:24:01.778Z,33.97
2019-06-15T13:26:33.811Z,33.80
2019-06-15T13:29:09.488Z,34.07
2019-06-15T13:31:43.534Z,34.51
2019-06-15T13:34:17.428Z,34.93
2019-06-15T13:36:49.800Z,35.26
2019-06-15T13:39:22.736Z,35.58
2019-06-15T13:41:54.811Z,35.45
2019-06-15T13:44:27.805Z,35.39
2019-06-15T13:46:59.700Z,35.34
2019-06-15T13:49:30.971Z,34.98
2019-06-15T13:52:02.782Z,34.73
2019-06-15T13:54:37.146Z,34.59
2019-06-15T13:57:10.767Z,34.36
2019-06-15T13:59:43.872Z,34.29
2019-06-15T14:02:18.127Z,34.31
2019-06-15T14:04:51.815Z,34.13
2019-06-15T14:07:24.049Z,34.10
2019-06-15T14:09:58.058Z,34.20
2019-06-15T14:12:31.642Z,34.45
2019-06-15T14:15:03.307Z,34.54
2019-06-15T14:17:39.822Z,34.14
2019-06-15T14:20:12.679Z,34.11
2019-06-15T14:22:51.989Z,34.21
2019-06-15T14:25:27.019Z,34.42
2019-06-15T14:28:10.580Z,34.82
2019-06-15T14:30:44.041Z,34.96
2019-06-15T14:33:27.437Z,34.90
2019-06-15T14:36:00.121Z,35.26
2019-06-15T14:38:32.147Z,35.48
2019-06-15T14:41:04.287Z,34.95
2019-06-15T14:43:37.270Z,35.27
2019-06-15T14:46:09.040Z,34.58
2019-06-15T14:48:42.369Z,34.83
2019-06-15T14:51:15.944Z,34.76
2019-06-15T14:53:55.147Z,35.07
2019-06-15T14:56:24.127Z,34.82
2019-06-15T14:58:58.015Z,34.40
2019-06-15T15:01:34.747Z,33.67
2019-06-15T15:04:06.304Z,33.54
2019-06-15T15:06:39.194Z,33.78
2019-06-15T15:09:13.022Z,33.81
2019-06-15T15:11:47.216Z,34.01
2019-06-15T15:14:20.532Z,34.60
2019-06-15T15:16:53.303Z,34.00
2019-06-15T15:19:27.295Z,33.74
2019-06-15T15:22:03.036Z,33.92
2019-06-15T15:24:34.279Z,34.00
2019-06-15T15:27:08.438Z,34.29
2019-06-15T15:29:42.567Z,34.32
2019-06-15T15:32:27.506Z,34.09
2019-06-15T15:34:50.502Z,34.26
2019-06-15T15:37:23.525Z,34.64
2019-06-15T15:39:56.530Z,34.60
2019-06-15T15:42:28.535Z,34.45
2019-06-15T15:45:02.186Z,34.11
2019-06-15T15:47:36.071Z,34.11
2019-06-15T15:50:07.818Z,33.63
2019-06-15T15:52:42.065Z,33.56
2019-06-15T15:55:13.901Z,33.71
2019-06-15T15:58:06.713Z,33.57
2019-06-15T16:00:40.527Z,33.28
2019-06-15T16:03:16.003Z,33.21
2019-06-15T16:06:01.126Z,33.13
2019-06-15T16:08:33.907Z,32.65
2019-06-15T16:11:07.509Z,33.49
2019-06-15T16:13:40.637Z,33.51
2019-06-15T16:16:16.195Z,33.61
2019-06-15T16:18:49.548Z,33.20
2019-06-15T16:21:22.710Z,32.75
2019-06-15T16:23:58.035Z,33.13
2019-06-15T16:26:30.776Z,33.08
2019-06-15T16:29:06.703Z,33.36
2019-06-15T16:31:39.598Z,33.18
2019-06-15T16:34:16.126Z,33.46
2019-06-15T16:36:48.916Z,33.39
2019-06-15T16:39:21.859Z,33.26
2019-06-15T16:41:59.380Z,33.27
2019-06-15T16:44:30.664Z,33.01
2019-06-15T16:47:05.943Z,33.01
2019-06-15T16:49:38.767Z,32.46
2019-06-15T16:52:11.920Z,32.83
2019-06-15T16:54:47.117Z,32.68
2019-06-15T16:57:20.039Z,32.89
2019-06-15T16:59:51.944Z,33.25
2019-06-15T17:02:26.064Z,33.16
2019-06-15T17:04:57.933Z,33.44
2019-06-15T17:07:31.959Z,33.34
2019-06-15T17:10:06.390Z,33.30
2019-06-15T17:12:37.916Z,33.16
2019-06-15T17:15:18.242Z,33.14
2019-06-15T17:18:03.225Z,33.43
2019-06-15T17:20:47.965Z,33.72
2019-06-15T17:23:23.481Z,33.58
2019-06-15T17:26:00.913Z,33.33
2019-06-15T17:28:33.059Z,33.21
2019-06-15T17:31:17.439Z,33.22
2019-06-15T17:33:58.738Z,33.11
2019-06-15T17:36:38.417Z,33.19
2019-06-15T17:39:17.096Z,33.19
2019-06-15T17:41:50.158Z,33.26
2019-06-15T17:44:36.872Z,33.02
2019-06-15T17:47:17.439Z,32.90
2019-06-15T17:49:51.169Z,32.54
2019-06-15T17:52:26.397Z,32.44
2019-06-15T17:54:59.565Z,32.35
2019-06-15T17:57:31.292Z,32.33
2019-06-15T18:00:05.412Z,32.46
2019-06-15T18:02:39.276Z,32.38
2019-06-15T18:05:12.470Z,32.25
2019-06-15T18:07:47.007Z,32.11
2019-06-15T18:10:31.518Z,31.98
2019-06-15T18:13:10.864Z,31.86
2019-06-15T18:15:47.703Z,31.81
2019-06-15T18:18:19.247Z,31.52
2019-06-15T18:20:56.841Z,31.28
2019-06-15T18:23:31.517Z,31.29
2019-06-15T18:26:06.987Z,31.25
2019-06-15T18:28:39.442Z,31.12
2019-06-15T18:31:13.352Z,31.14
2019-06-15T18:33:47.349Z,30.69
2019-06-15T18:36:21.703Z,30.42
2019-06-15T18:38:54.463Z,30.06
2019-06-15T18:41:26.703Z,30.02
2019-06-15T18:43:59.450Z,30.12
2019-06-15T18:46:33.386Z,29.96
2019-06-15T18:49:09.436Z,29.76
2019-06-15T18:51:46.106Z,29.42
2019-06-15T18:54:18.391Z,29.57
2019-06-15T18:56:51.844Z,29.32
2019-06-15T18:59:25.958Z,29.22
2019-06-15T19:01:57.497Z,29.02
2019-06-15T19:04:31.073Z,29.13
2019-06-15T19:07:02.559Z,29.20
2019-06-15T19:09:33.765Z,29.65
2019-06-15T19:12:07.355Z,29.87
2019-06-15T19:14:38.558Z,30.10
2019-06-15T19:17:10.642Z,30.00
2019-06-15T19:19:42.589Z,29.52
2019-06-15T19:22:17.174Z,30.04
2019-06-15T19:24:50.656Z,29.74
2019-06-15T19:27:25.817Z,29.54
2019-06-15T19:29:59.478Z,29.31
2019-06-15T19:32:32.929Z,29.23
2019-06-15T19:35:05.416Z,29.10
2019-06-15T19:37:37.188Z,28.96
2019-06-15T19:40:12.990Z,28.80
2019-06-15T19:42:58.712Z,27.32
2019-06-15T19:45:37.014Z,28.81
2019-06-15T19:48:08.824Z,28.84
2019-06-15T19:50:42.148Z,28.74
2019-06-15T19:53:14.061Z,29.17
2019-06-15T19:55:50.494Z,28.98
2019-06-15T19:58:26.264Z,28.86
2019-06-15T20:00:59.865Z,28.53
2019-06-15T20:03:36.281Z,28.43
2019-06-15T20:06:08.936Z,28.31
2019-06-15T20:08:41.911Z,28.39
2019-06-15T20:11:17.551Z,28.35
2019-06-15T20:13:48.862Z,28.32
2019-06-15T20:16:23.794Z,28.45
2019-06-15T20:18:56.297Z,28.45
2019-06-15T20:21:30.026Z,28.25
2019-06-15T20:24:06.184Z,28.26
2019-06-15T20:26:38.971Z,28.28
2019-06-15T20:29:11.961Z,27.69
2019-06-15T20:31:46.336Z,27.87
2019-06-15T20:34:19.160Z,27.48
2019-06-15T20:36:51.237Z,27.72
2019-06-15T20:39:29.168Z,28.00
2019-06-15T20:42:02.116Z,27.92
2019-06-15T20:44:33.584Z,27.86
2019-06-15T20:47:14.709Z,27.75
2019-06-15T20:49:47.099Z,27.47
2019-06-15T20:52:21.199Z,27.41
2019-06-15T20:54:57.067Z,27.36
2019-06-15T20:57:30.047Z,27.37
2019-06-15T21:00:06.233Z,27.27
2019-06-15T21:02:38.348Z,27.16
2019-06-15T21:05:37.168Z,27.24
2019-06-15T21:08:02.754Z,27.15
2019-06-15T21:10:39.943Z,27.06
2019-06-15T21:13:13.299Z,27.06
2019-06-15T21:15:47.650Z,27.00
2019-06-15T21:18:20.181Z,26.98
2019-06-15T21:21:07.032Z,26.91
2019-06-15T21:23:40.310Z,26.89
2019-06-15T21:26:11.505Z,26.80
2019-06-15T21:28:57.839Z,26.83
2019-06-15T21:31:46.253Z,26.67
2019-06-15T21:34:17.501Z,26.55
2019-06-15T21:36:49.225Z,26.49
2019-06-15T21:39:22.569Z,26.43
2019-06-15T21:41:57.068Z,26.35
2019-06-15T21:44:29.395Z,26.32
2019-06-15T21:47:01.714Z,26.25
2019-06-15T21:49:35.841Z,26.20
2019-06-15T21:52:10.551Z,26.12
2019-06-15T21:54:49.756Z,26.12
2019-06-15T21:57:23.744Z,26.12
2019-06-15T21:59:57.590Z,26.04
2019-06-15T22:02:33.006Z,26.02
2019-06-15T22:05:07.082Z,25.90
2019-06-15T22:07:41.759Z,25.86
2019-06-15T22:10:30.480Z,25.88
2019-06-15T22:13:03.579Z,25.91
2019-06-15T22:15:42.556Z,25.91
2019-06-15T22:18:16.700Z,25.94
2019-06-15T22:20:48.514Z,25.88
2019-06-15T22:23:21.690Z,25.83
2019-06-15T22:25:57.243Z,25.76
2019-06-15T22:28:31.666Z,25.77
2019-06-15T22:31:06.443Z,25.59
2019-06-15T22:33:40.674Z,25.62
2019-06-15T22:36:24.850Z,25.62
2019-06-15T22:38:52.955Z,25.60
2019-06-15T22:41:26.870Z,25.60
2019-06-15T22:43:59.658Z,25.62
2019-06-15T22:46:33.804Z,25.64
2019-06-15T22:49:08.513Z,25.57
2019-06-15T22:51:42.139Z,25.49
2019-06-15T22:54:16.684Z,25.50
2019-06-15T22:56:50.059Z,25.46
2019-06-15T22:59:22.691Z,25.47
2019-06-15T23:01:57.518Z,25.52
2019-06-15T23:04:33.555Z,25.45
2019-06-15T23:07:07.750Z,25.44
2019-06-15T23:09:41.025Z,25.45
2019-06-15T23:12:15.541Z,25.57
2019-06-15T23:14:47.858Z,25.50
2019-06-15T23:17:23.938Z,25.49
2019-06-15T23:19:57.170Z,25.53
2019-06-15T23:22:32.208Z,25.69
2019-06-15T23:25:07.418Z,26.09
2019-06-15T23:27:38.933Z,25.99
2019-06-15T23:30:11.622Z,26.38
2019-06-15T23:32:48.684Z,25.96
2019-06-15T23:35:37.039Z,25.60
2019-06-15T23:38:09.806Z,25.65
2019-06-15T23:40:42.180Z,25.26
2019-06-15T23:43:16.719Z,25.46
2019-06-15T23:45:50.154Z,25.33
2019-06-15T23:48:23.137Z,25.49
2019-06-15T23:50:56.967Z,25.43
2019-06-15T23:53:29.393Z,26.05
2019-06-15T23:56:01.607Z,26.13
2019-06-15T23:58:33.234Z,25.79
